aviador You're here:

SABE Decoded Metar

BUENOS AIRES in ARGENTINA
Report Time2018-06-18 15:00:00
UTC Time2018-06-18 15:28:01
Flight Rules vfr VFR
Wind350° at 09 kt
W.Decomp.*RWY 31: 6.1 kt HW 6.6 kt RCW
W.Rank350° ranks 25
Current wind is above 350° avg. (7.9)
Visibility9999 m
Phenomena:N/A
Clouds:N/A
Expected CloudBase > 3,200 ft AGL from Temp-Dew spread
CeilingNone
Temp13°C (ISA -2)
Dew Point05°C (59% RH)
AAT8.7°C
QNH1027 hPa
Density Alt-564 ft
Elevation20 ft
Report Wrong Elevation
Raw Report
SABE 181500Z 35009KT CAVOK 13/05 Q1027 NOSIG=

Extra information for SABE:More info

Metar Taf Metar & Taf Last 4 Metars F.Rules Stats Wind Profile Meteogram Temp Stats Airport Information Weather charts Add Link Nearby VenuesMetar ALERT Operation Metar Decoded Social comments